Time;durP1;ratioP1;P1;durP2;ratioP2;P2;SDS_P1;SDS_P2;PMS_P1;PMS_P2;Temp;Humidity;BMP_temperature;BMP_pressure;BME280_temperature;BME280_humidity;BME280_pressure;Samples;Min_cycle;Max_cycle;Signal;HPM_P1;HPM_P2
2022/11/22 00:02:25;;;;;;;88.40;26.00;;;0.00;99.90;;;-1.93;100.00;98882.88;4820509;29;20049;-76
2022/11/22 00:04:51;;;;;;;87.45;24.15;;;0.00;99.90;;;-1.90;100.00;98897.72;4820951;29;20046;-77
2022/11/22 00:07:16;;;;;;;92.30;24.73;;;0.00;99.90;;;-1.89;100.00;98902.06;4820873;29;20038;-77
2022/11/22 00:09:42;;;;;;;95.25;24.42;;;0.00;99.90;;;-1.90;100.00;98893.19;4820663;29;20049;-78
2022/11/22 00:12:08;;;;;;;89.55;25.50;;;0.00;99.90;;;-1.85;100.00;98890.00;4821098;29;20039;-78
2022/11/22 00:14:33;;;;;;;101.40;26.77;;;0.10;99.90;;;-1.85;100.00;98889.19;4820804;29;20037;-77
2022/11/22 00:16:59;;;;;;;105.80;27.80;;;0.10;99.90;;;-1.97;100.00;98876.22;4821203;29;20037;-78
2022/11/22 00:19:25;;;;;;;97.35;24.92;;;0.10;99.90;;;-1.83;100.00;98895.19;4824816;29;20056;-77
2022/11/22 00:21:50;;;;;;;103.40;26.85;;;0.10;99.90;;;-1.83;100.00;98882.63;4823434;29;20042;-77
2022/11/22 00:24:16;;;;;;;101.18;27.02;;;0.10;99.90;;;-1.81;100.00;98869.09;4822732;29;20053;-77
2022/11/22 00:26:42;;;;;;;98.20;26.52;;;0.10;99.90;;;-1.84;100.00;98872.94;4820645;29;20043;-77
2022/11/22 00:29:08;;;;;;;97.32;26.05;;;0.10;99.90;;;-1.79;100.00;98872.41;4820309;29;20038;-77
2022/11/22 00:31:33;;;;;;;100.25;26.98;;;0.10;99.90;;;-1.74;100.00;98886.06;4820449;29;20038;-76
2022/11/22 00:33:59;;;;;;;95.18;27.27;;;0.20;99.90;;;-1.76;100.00;98874.72;4820848;29;20042;-77
2022/11/22 00:36:25;;;;;;;106.60;29.55;;;0.20;99.90;;;-1.72;100.00;98878.69;4820416;29;20103;-76
2022/11/22 00:38:51;;;;;;;103.90;25.90;;;0.20;99.90;;;-1.81;100.00;98859.22;4820523;29;20095;-77
2022/11/22 00:41:17;;;;;;;98.68;26.70;;;0.20;99.90;;;-1.69;100.00;98867.63;4820444;29;20038;-77
2022/11/22 00:43:43;;;;;;;105.22;27.63;;;0.20;99.90;;;-1.65;100.00;98865.44;4820197;29;20034;-76
2022/11/22 00:46:09;;;;;;;102.65;26.77;;;0.20;99.90;;;-1.66;100.00;98864.59;4820401;29;20091;-77
2022/11/22 00:48:35;;;;;;;108.32;29.98;;;0.30;99.90;;;-1.67;100.00;98854.91;4821592;29;20042;-78
2022/11/22 00:51:00;;;;;;;107.57;27.35;;;0.30;99.90;;;-1.64;100.00;98859.91;4825615;29;20042;-76
2022/11/22 00:53:26;;;;;;;109.85;28.40;;;0.30;99.90;;;-1.64;100.00;98851.06;4820058;29;20035;-76
2022/11/22 00:55:52;;;;;;;110.00;28.85;;;0.30;99.90;;;-1.60;100.00;98855.84;4820916;29;20042;-76
2022/11/22 00:58:17;;;;;;;116.15;31.45;;;0.30;99.90;;;-1.60;100.00;98844.31;4822696;29;20078;-77
2022/11/22 01:00:43;;;;;;;108.22;30.63;;;0.30;99.90;;;-1.57;100.00;98832.44;4820561;29;20038;-76
2022/11/22 01:03:13;;;;;;;105.57;30.25;;;0.30;99.90;;;-1.54;100.00;98832.88;4820005;29;20406;-77
2022/11/22 01:05:40;;;;;;;103.57;29.15;;;0.30;99.90;;;-1.52;100.00;98822.03;4820289;29;20052;-77
2022/11/22 01:08:06;;;;;;;105.47;30.40;;;0.40;99.90;;;-1.53;100.00;98810.47;4823586;29;20243;-76
2022/11/22 01:10:38;;;;;;;110.18;29.92;;;0.40;99.90;;;-1.49;100.00;98817.13;4822981;29;20086;-78
2022/11/22 01:13:04;;;;;;;110.00;30.20;;;0.40;99.90;;;-1.47;100.00;98817.75;4826187;29;20042;-77
2022/11/22 01:15:31;;;;;;;105.03;29.75;;;0.40;99.90;;;-1.45;100.00;98810.41;4824428;29;20046;-77
2022/11/22 01:17:58;;;;;;;113.53;32.13;;;0.40;99.90;;;-1.43;100.00;98812.88;4822239;29;20035;-77
2022/11/22 01:20:24;;;;;;;109.45;32.13;;;0.50;99.90;;;-1.41;100.00;98815.41;4818871;29;20049;-76
2022/11/22 01:22:49;;;;;;;99.20;29.75;;;0.50;99.90;;;-1.41;100.00;98810.03;4820231;29;20057;-77
2022/11/22 01:25:15;;;;;;;113.35;29.40;;;0.50;99.90;;;-1.43;100.00;98809.41;4820016;29;20039;-77
2022/11/22 01:27:41;;;;;;;105.55;30.88;;;0.50;99.90;;;-1.51;100.00;98795.06;4819417;29;20046;-76
2022/11/22 01:30:07;;;;;;;106.65;29.63;;;0.50;99.90;;;-1.48;100.00;98796.56;4819534;29;20057;-76
2022/11/22 01:32:33;;;;;;;113.47;31.85;;;0.50;99.90;;;-1.44;100.00;98784.47;4819217;29;20053;-77
2022/11/22 01:34:59;;;;;;;113.13;32.85;;;0.50;99.90;;;-1.42;100.00;98797.69;4819571;29;20437;-77
2022/11/22 01:37:24;;;;;;;102.38;29.05;;;0.50;99.90;;;-1.45;100.00;98788.16;4819668;29;20187;-76
2022/11/22 01:39:50;;;;;;;99.35;30.75;;;0.40;99.90;;;-1.45;100.00;98775.63;4819391;29;20440;-77
2022/11/22 01:42:16;;;;;;;113.07;32.22;;;0.50;99.90;;;-1.43;100.00;98791.50;4819440;29;20049;-76
2022/11/22 01:44:43;;;;;;;99.18;31.00;;;0.50;99.90;;;-1.43;100.00;98793.34;4824074;29;20105;-76
2022/11/22 01:47:23;;;;;;;110.43;30.80;;;0.50;99.90;;;-1.39;100.00;98792.78;4819975;29;20557;-76
2022/11/22 01:50:05;;;;;;;107.85;30.50;;;0.50;99.90;;;-1.39;100.00;98781.25;4819684;29;20129;-76
2022/11/22 01:52:34;;;;;;;103.07;30.67;;;0.50;99.90;;;-1.38;100.00;98769.53;4826444;29;20202;-76
2022/11/22 01:55:10;;;;;;;103.68;31.52;;;0.50;99.90;;;-1.39;100.00;98775.91;4819691;29;20034;-76
2022/11/22 01:57:40;;;;;;;102.15;30.50;;;0.50;99.90;;;-1.38;100.00;98765.00;4819064;29;20038;-76
2022/11/22 02:00:16;;;;;;;98.38;31.20;;;0.50;99.90;;;-1.40;100.00;98776.91;4819151;29;20113;-76
2022/11/22 02:02:50;;;;;;;88.28;28.40;;;0.50;99.90;;;-1.39;100.00;98779.41;4819545;29;20038;-77
2022/11/22 02:05:21;;;;;;;100.30;30.92;;;0.50;99.90;;;-1.41;100.00;98768.06;4819826;29;20046;-78
2022/11/22 02:07:58;;;;;;;101.63;31.00;;;0.50;99.90;;;-1.37;100.00;98763.16;4828821;29;20038;-79
2022/11/22 02:10:27;;;;;;;104.32;30.50;;;0.50;99.90;;;-1.36;100.00;98781.69;4818818;29;20089;-78
2022/11/22 02:12:58;;;;;;;97.45;29.90;;;0.50;99.90;;;-1.36;100.00;98776.34;4819057;29;20030;-77
2022/11/22 02:15:24;;;;;;;103.43;30.08;;;0.50;99.90;;;-1.45;100.00;98756.06;4818901;29;20041;-77
2022/11/22 02:17:50;;;;;;;95.03;29.58;;;0.50;99.90;;;-1.37;100.00;98769.34;4819304;29;20039;-76
2022/11/22 02:20:16;;;;;;;107.50;32.92;;;0.50;99.90;;;-1.37;100.00;98771.19;4820242;29;20053;-76
2022/11/22 02:23:00;;;;;;;107.93;31.65;;;0.50;99.90;;;-1.38;100.00;98769.53;4822626;29;20117;-77
2022/11/22 02:25:39;;;;;;;103.28;32.45;;;0.50;99.90;;;-1.38;100.00;98781.06;4822611;29;20038;-76
2022/11/22 02:28:12;;;;;;;102.28;34.80;;;0.50;99.90;;;-1.39;100.00;98773.22;4835701;29;20051;-76
2022/11/22 02:30:40;;;;;;;110.90;35.17;;;0.50;99.90;;;-1.40;100.00;98775.06;4822017;29;20084;-77
2022/11/22 02:33:06;;;;;;;105.25;33.33;;;0.50;99.90;;;-1.42;100.00;98771.75;4822151;29;20106;-76
2022/11/22 02:35:32;;;;;;;113.25;34.80;;;0.50;99.90;;;-1.42;100.00;98762.91;4822210;29;20115;-76
2022/11/22 02:38:02;;;;;;;110.78;35.35;;;0.50;99.90;;;-1.41;100.00;98768.06;4822344;29;20121;-77
2022/11/22 02:40:35;;;;;;;106.55;33.10;;;0.50;99.90;;;-1.42;100.00;98760.22;4822083;29;20034;-77
2022/11/22 02:43:06;;;;;;;110.57;33.47;;;0.50;99.90;;;-1.40;100.00;98763.53;4821878;29;20046;-76
2022/11/22 02:45:32;;;;;;;104.13;31.00;;;0.50;99.90;;;-1.40;100.00;98756.34;4821927;29;20226;-76
2022/11/22 02:48:11;;;;;;;114.20;33.40;;;0.50;99.90;;;-1.39;100.00;98763.34;4822049;29;20031;-76
2022/11/22 02:50:37;;;;;;;;;;;0.50;99.90;;;-1.40;100.00;98755.53;4821943;29;20122;-76
2022/11/22 02:53:05;;;;;;;113.47;32.00;;;0.50;99.90;;;-1.36;100.00;98756.81;4822332;29;19917;-77
2022/11/22 02:55:31;;;;;;;109.43;34.10;;;0.60;99.90;;;-1.37;100.00;98747.13;4821755;29;20817;-76
2022/11/22 02:57:57;;;;;;;114.85;33.53;;;0.50;99.90;;;-1.35;100.00;98745.09;4822062;29;20553;-77
2022/11/22 03:00:23;;;;;;;113.50;33.50;;;0.60;99.90;;;-1.37;100.00;98741.75;4821806;29;20047;-76
2022/11/22 03:02:49;;;;;;;107.13;32.95;;;0.50;99.90;;;-1.35;100.00;98748.56;4821667;29;20026;-76
2022/11/22 03:05:15;;;;;;;109.00;33.85;;;0.60;99.90;;;-1.34;100.00;98758.25;4821975;29;20034;-76
2022/11/22 03:07:40;;;;;;;110.30;33.30;;;0.60;99.90;;;-1.33;100.00;98740.38;4821604;29;20030;-76
2022/11/22 03:10:07;;;;;;;104.15;31.20;;;0.60;99.90;;;-1.31;100.00;98749.88;4822172;29;20069;-76
2022/11/22 03:12:32;;;;;;;103.82;32.70;;;0.60;99.90;;;-1.33;100.00;98749.25;4821716;29;20099;-76
2022/11/22 03:14:58;;;;;;;107.22;32.38;;;0.60;99.90;;;-1.31;100.00;98768.63;4821524;29;20611;-76
2022/11/22 03:17:24;;;;;;;111.70;31.83;;;0.60;99.90;;;-1.31;100.00;98765.09;4822208;29;20034;-77
2022/11/22 03:19:50;;;;;;;111.28;32.80;;;0.60;99.90;;;-1.30;100.00;98764.09;4821236;29;20030;-75
2022/11/22 03:22:15;;;;;;;104.90;31.73;;;0.60;99.90;;;-1.28;100.00;98764.72;4821739;29;20031;-75
2022/11/22 03:24:41;;;;;;;107.28;33.03;;;0.60;99.90;;;-1.37;100.00;98755.97;4821756;29;20037;-76
2022/11/22 03:27:07;;;;;;;97.95;29.63;;;0.60;99.90;;;-1.26;100.00;98754.66;4821275;29;20398;-77
2022/11/22 03:29:32;;;;;;;98.75;33.55;;;0.60;99.90;;;-1.27;100.00;98749.50;4821149;29;20034;-77
2022/11/22 03:31:58;;;;;;;101.38;30.30;;;0.60;99.90;;;-1.27;100.00;98741.47;4820169;29;20549;-76
2022/11/22 03:34:24;;;;;;;94.75;31.00;;;0.70;99.90;;;-1.25;100.00;98744.81;4824253;29;20034;-76
2022/11/22 03:36:50;;;;;;;101.65;32.28;;;0.70;99.90;;;-1.24;100.00;98735.75;4820877;29;20058;-76
2022/11/22 03:39:16;;;;;;;101.68;31.52;;;0.60;99.90;;;-1.24;100.00;98741.91;4820950;29;20042;-77
2022/11/22 03:41:41;;;;;;;100.28;31.33;;;0.70;99.90;;;-1.20;100.00;98745.06;4825891;29;20037;-76
2022/11/22 03:44:07;;;;;;;92.13;28.42;;;0.70;99.90;;;-1.21;100.00;98743.41;4822462;29;20042;-76
2022/11/22 03:46:33;;;;;;;102.75;30.58;;;0.70;99.90;;;-1.21;100.00;98744.22;4820982;29;20042;-76
2022/11/22 03:48:59;;;;;;;106.28;30.48;;;0.70;99.90;;;-1.25;100.00;98742.94;4820678;29;20053;-76
2022/11/22 03:51:26;;;;;;;102.78;30.10;;;0.70;99.90;;;-1.21;100.00;98740.72;4820633;29;20355;-76
2022/11/22 03:53:52;;;;;;;99.30;29.60;;;0.70;99.90;;;-1.24;100.00;98725.06;4821340;29;20102;-77
2022/11/22 03:56:17;;;;;;;93.93;29.17;;;0.70;99.90;;;-1.23;100.00;98732.88;4820678;29;20034;-76
2022/11/22 03:58:43;;;;;;;96.82;30.15;;;0.70;99.90;;;-1.18;100.00;98735.00;4820771;29;20498;-76
2022/11/22 04:01:09;;;;;;;87.68;29.92;;;0.70;99.90;;;-1.16;100.00;98732.97;4820525;29;20044;-76
2022/11/22 04:03:35;;;;;;;95.78;31.20;;;0.70;99.90;;;-1.17;100.00;98739.34;4821150;29;20040;-76
2022/11/22 04:06:00;;;;;;;88.93;30.02;;;0.70;99.90;;;-1.16;100.00;98736.47;4821103;29;20421;-76
2022/11/22 04:08:26;;;;;;;97.03;28.75;;;0.80;99.90;;;-1.16;100.00;98739.16;4823923;29;20034;-75
2022/11/22 04:10:52;;;;;;;89.95;29.67;;;0.80;99.90;;;-1.14;100.00;98724.75;4820348;29;20047;-76
2022/11/22 04:13:18;;;;;;;99.07;30.90;;;0.80;99.90;;;-1.18;100.00;98718.94;4820346;29;20026;-76
2022/11/22 04:15:44;;;;;;;89.53;29.08;;;0.80;99.90;;;-1.11;100.00;98735.91;4820965;29;20066;-77
2022/11/22 04:18:12;;;;;;;91.47;30.77;;;0.80;99.90;;;-1.10;100.00;98742.91;4820640;29;20065;-76
2022/11/22 04:23:25;;;;;;;92.30;30.05;;;0.80;99.90;;;-1.12;100.00;98728.88;4822210;29;20414;-76
2022/11/22 04:25:53;;;;;;;89.97;29.40;;;0.70;99.90;;;-1.09;100.00;98735.72;4820138;29;20042;-77
2022/11/22 04:28:24;;;;;;;96.20;30.85;;;0.80;99.90;;;-1.10;100.00;98737.56;4820509;29;20574;-77
2022/11/22 04:33:35;;;;;;;82.47;29.45;;;0.80;99.90;;;-1.06;100.00;98738.03;4820831;29;20367;-78
2022/11/22 04:36:01;;;;;;;90.75;29.55;;;0.80;99.90;;;-1.05;100.00;98740.53;4828083;29;20049;-78
2022/11/22 04:38:27;;;;;;;85.32;28.50;;;0.80;99.90;;;-1.04;100.00;98734.16;4820024;29;20545;-77
2022/11/22 04:40:53;;;;;;;94.97;31.30;;;0.80;99.90;;;-1.03;100.00;98741.16;4820147;29;20037;-77
2022/11/22 04:46:10;;;;;;;83.50;30.55;;;0.90;99.90;;;-1.05;100.00;98745.03;4820654;29;20042;-77
2022/11/22 04:48:36;;;;;;;85.03;28.63;;;0.90;99.90;;;-0.99;100.00;98749.63;4820165;29;20777;-76
2022/11/22 04:53:47;;;;;;;85.72;29.30;;;0.90;99.90;;;-0.94;100.00;98754.44;4820241;29;20125;-77
2022/11/22 04:56:13;;;;;;;87.72;28.73;;;0.90;99.90;;;-0.94;100.00;98757.09;4820050;29;20109;-77
2022/11/22 04:58:39;;;;;;;83.07;29.65;;;0.90;99.90;;;-0.96;100.00;98751.13;4820208;29;20031;-77
2022/11/22 05:01:05;;;;;;;87.45;30.85;;;0.90;99.90;;;-0.93;100.00;98748.91;4819632;29;20034;-77
2022/11/22 05:03:31;;;;;;;83.60;28.85;;;0.90;99.90;;;-0.92;100.00;98753.22;4819993;29;20125;-77
2022/11/22 05:06:03;;;;;;;91.47;30.35;;;1.00;99.90;;;-0.89;100.00;98754.69;4820082;29;20052;-77
2022/11/22 05:08:29;;;;;;;81.28;31.30;;;1.00;99.90;;;-0.88;100.00;98749.16;4819707;29;20087;-76
2022/11/22 05:10:58;;;;;;;82.60;29.45;;;1.00;99.90;;;-0.87;100.00;98756.16;4819831;29;20126;-77
2022/11/22 05:13:34;;;;;;;80.78;28.17;;;1.00;99.90;;;-0.85;100.00;98757.81;4819774;29;20362;-77
2022/11/22 05:16:04;;;;;;;81.03;29.25;;;1.00;99.90;;;-0.84;100.00;98760.31;4820124;29;20038;-77
2022/11/22 05:18:31;;;;;;;78.82;28.23;;;1.00;99.90;;;-0.83;100.00;98758.47;4819942;29;20038;-77
2022/11/22 05:20:58;;;;;;;77.25;27.27;;;1.00;99.90;;;-0.82;100.00;98758.25;4819402;29;20064;-77
2022/11/22 05:26:10;;;;;;;77.47;28.80;;;1.10;99.90;;;-0.85;100.00;98755.16;4824356;29;20038;-77
2022/11/22 05:28:38;;;;;;;77.82;27.90;;;1.10;99.90;;;-0.79;100.00;98754.38;4820126;29;20398;-78
2022/11/22 05:31:17;;;;;;;76.07;28.60;;;1.10;99.90;;;-0.80;100.00;98761.56;4833116;29;20031;-78
2022/11/22 05:33:45;;;;;;;75.45;28.23;;;1.10;99.90;;;-0.86;100.00;98754.31;4819241;29;20026;-77
2022/11/22 05:36:11;;;;;;;77.82;27.52;;;1.10;99.90;;;-0.79;100.00;98757.91;4819161;29;20054;-76
2022/11/22 05:38:37;;;;;;;80.40;28.52;;;1.10;99.90;;;-0.76;100.00;98770.91;4819545;29;20083;-77
2022/11/22 05:41:07;;;;;;;80.95;27.17;;;1.10;99.90;;;-0.75;100.00;98761.88;4819687;29;20418;-78
2022/11/22 05:43:33;;;;;;;77.35;29.40;;;1.10;99.90;;;-0.75;100.00;98759.19;4825808;29;20436;-77
2022/11/22 05:46:18;;;;;;;77.03;28.50;;;1.10;99.90;;;-0.75;100.00;98761.88;4822663;29;20054;-77
2022/11/22 05:48:45;;;;;;;80.65;27.17;;;1.10;99.90;;;-0.78;100.00;98748.84;4819370;29;20046;-79
2022/11/22 05:51:20;;;;;;;81.43;28.38;;;1.10;99.90;;;-0.75;100.00;98758.34;4819444;29;20038;-77
2022/11/22 05:53:46;;;;;;;80.85;28.05;;;1.10;99.90;;;-0.75;100.00;98763.69;4821683;29;20048;-78
2022/11/22 05:56:16;;;;;;;75.70;28.50;;;1.10;99.90;;;-0.75;100.00;98761.88;4818408;29;20432;-78
2022/11/22 05:58:42;;;;;;;75.80;28.33;;;1.10;99.90;;;-0.74;100.00;98763.53;4824606;29;20130;-77
2022/11/22 06:01:15;;;;;;;73.57;26.52;;;1.10;99.90;;;-0.76;100.00;98754.84;4820424;29;20042;-77
2022/11/22 06:03:41;;;;;;;73.43;27.55;;;1.10;99.90;;;-0.71;100.00;98754.25;4825252;29;20061;-78
2022/11/22 06:06:08;;;;;;;77.47;28.15;;;1.10;99.90;;;-0.67;100.00;98768.13;4819000;29;20520;-78
2022/11/22 06:08:39;;;;;;;76.78;27.52;;;1.20;99.90;;;-0.67;100.00;98768.13;4818918;29;20043;-78
2022/11/22 06:11:09;;;;;;;70.10;26.40;;;1.20;99.90;;;-0.64;100.00;98757.00;4819339;29;20042;-78
2022/11/22 06:13:40;;;;;;;72.53;26.00;;;1.20;99.90;;;-0.64;100.00;98757.00;4818823;29;20031;-81
2022/11/22 06:16:07;;;;;;;74.07;26.40;;;1.20;99.90;;;-0.65;100.00;98752.69;4819187;29;20398;-79
2022/11/22 06:18:34;;;;;;;72.07;26.20;;;1.20;99.90;;;-0.63;100.00;98753.31;4818431;29;20026;-78
2022/11/22 06:21:09;;;;;;;72.93;27.63;;;1.20;99.90;;;-0.61;100.00;98751.28;4831035;29;20402;-78
2022/11/22 06:23:34;;;;;;;69.25;27.70;;;1.20;99.90;;;-0.71;100.00;98734.69;4818536;29;20050;-78
2022/11/22 06:26:04;;;;;;;77.55;28.35;;;1.30;99.90;;;-0.59;100.00;98755.44;4818586;29;20043;-78
2022/11/22 06:28:33;;;;;;;71.53;28.33;;;1.30;99.90;;;-0.59;100.00;98760.78;4818813;29;20043;-78
2022/11/22 06:31:14;;;;;;;78.80;27.60;;;1.30;99.90;;;-0.58;100.00;98758.94;4818495;29;20042;-80
2022/11/22 06:33:41;;;;;;;76.47;28.50;;;1.30;99.90;;;-0.56;100.00;98767.59;4818949;29;20096;-80
2022/11/22 06:36:14;;;;;;;70.32;27.45;;;1.30;99.90;;;-0.55;100.00;98771.13;4822455;29;20099;-80
2022/11/22 06:38:42;;;;;;;71.68;26.48;;;1.30;99.90;;;-0.57;100.00;98768.63;4818923;29;20091;-81
2022/11/22 06:41:11;;;;;;;69.93;25.92;;;1.30;99.90;;;-0.55;100.00;98769.25;4821407;29;20034;-79
2022/11/22 06:43:39;;;;;;;65.70;26.33;;;1.30;99.90;;;-0.53;100.00;98769.91;4818564;29;20038;-79
2022/11/22 06:46:06;;;;;;;;;;;1.40;99.90;;;-0.57;100.00;98773.97;4819371;29;20042;-78
2022/11/22 06:48:36;;;;;;;72.30;28.10;;;1.30;99.90;;;-0.52;100.00;98779.63;4828754;29;19973;-76
2022/11/22 06:51:12;;;;;;;70.15;28.05;;;1.30;99.90;;;-0.53;100.00;98775.28;4819026;29;20058;-76
2022/11/22 06:53:38;;;;;;;69.93;26.80;;;1.30;99.90;;;-0.53;100.00;98777.97;4820276;29;20026;-78
2022/11/22 06:56:23;;;;;;;70.57;26.83;;;1.30;99.90;;;-0.50;100.00;98782.09;4818208;29;20045;-76
2022/11/22 06:58:51;;;;;;;68.47;27.20;;;1.40;99.90;;;-0.45;100.00;98801.94;4818351;29;20149;-76
2022/11/22 07:01:21;;;;;;;70.82;27.90;;;1.40;99.90;;;-0.41;100.00;98798.88;4818722;29;20089;-78
2022/11/22 07:03:48;;;;;;;67.60;27.20;;;1.40;99.90;;;-0.40;100.00;98784.47;4818521;29;20042;-78
2022/11/22 07:06:16;;;;;;;71.88;29.08;;;1.50;99.90;;;-0.37;100.00;98795.63;4821563;29;20034;-78
2022/11/22 07:08:43;;;;;;;66.35;27.05;;;1.50;99.90;;;-0.36;100.00;98791.94;4827284;29;20091;-77
2022/11/22 07:11:12;;;;;;;63.42;26.17;;;1.50;99.90;;;-0.33;100.00;98793.38;4821446;29;20031;-78
2022/11/22 07:13:39;;;;;;;65.70;27.70;;;1.50;99.90;;;-0.29;100.00;98797.34;4821204;29;20034;-78
2022/11/22 07:16:09;;;;;;;72.68;27.15;;;1.50;99.90;;;-0.30;100.00;98793.00;4834847;29;20039;-77
2022/11/22 07:18:35;;;;;;;62.08;24.95;;;1.60;99.90;;;-0.30;100.00;98790.31;4821640;29;20162;-78
2022/11/22 07:21:50;;;;;;;64.75;24.83;;;1.60;99.90;;;-0.28;100.00;98809.72;4821971;29;20048;-75
2022/11/22 07:24:19;;;;;;;63.42;25.30;;;1.60;99.90;;;-0.26;100.00;98813.06;4810414;29;20046;-75
2022/11/22 07:26:44;;;;;;;62.33;26.55;;;1.60;99.90;;;-0.23;100.00;98815.34;4821067;29;20482;-76
2022/11/22 07:29:10;;;;;;;58.75;24.52;;;1.60;99.90;;;-0.18;100.00;98825.47;4820694;29;20504;-77
2022/11/22 07:31:36;;;;;;;63.83;26.15;;;1.60;99.90;;;-0.16;100.00;98831.47;4820931;29;20038;-77
2022/11/22 07:34:02;;;;;;;61.40;23.63;;;1.70;99.90;;;-0.15;100.00;98833.97;4820442;29;20034;-77
2022/11/22 07:36:29;;;;;;;62.72;25.05;;;1.70;99.90;;;-0.10;100.00;98837.94;4820715;29;20050;-77
2022/11/22 07:38:55;;;;;;;59.17;23.15;;;1.70;99.90;;;-0.06;100.00;98845.41;4820262;29;20036;-77
2022/11/22 07:41:21;;;;;;;53.72;23.48;;;1.80;99.90;;;-0.03;100.00;98838.81;4824805;29;20038;-77
2022/11/22 07:43:47;;;;;;;56.65;23.08;;;1.80;99.90;;;0.00;100.00;98841.16;4820774;29;20053;-77
2022/11/22 07:46:21;;;;;;;52.38;21.77;;;1.80;99.90;;;0.08;100.00;98851.72;4823110;29;20490;-76
2022/11/22 07:48:48;;;;;;;53.83;22.00;;;1.90;99.90;;;0.18;100.00;98855.94;4819919;29;20125;-79
2022/11/22 07:51:14;;;;;;;52.65;21.98;;;2.00;99.90;;;0.27;100.00;98860.16;4820369;29;20046;-77
2022/11/22 07:53:40;;;;;;;50.03;21.08;;;2.10;99.90;;;0.35;100.00;98857.31;4819534;29;20426;-77
2022/11/22 07:56:06;;;;;;;46.35;20.13;;;2.20;99.90;;;0.46;100.00;98845.22;4820348;29;20038;-77
2022/11/22 07:58:34;;;;;;;48.35;21.10;;;2.30;99.90;;;0.54;100.00;98849.63;4820692;29;20035;-77
2022/11/22 08:01:11;;;;;;;48.63;20.48;;;2.30;99.90;;;0.47;100.00;98843.34;4822322;29;20057;-77
2022/11/22 08:03:38;;;;;;;43.10;20.63;;;2.40;99.90;;;0.55;100.00;98867.38;4829706;29;20053;-77
2022/11/22 08:06:07;;;;;;;45.97;19.90;;;2.40;99.90;;;0.65;100.00;98861.66;4831200;29;20031;-76
2022/11/22 08:08:34;;;;;;;43.15;20.92;;;2.50;99.90;;;0.80;100.00;98872.31;4823481;29;20035;-77
2022/11/22 08:11:02;;;;;;;47.93;21.10;;;2.60;99.90;;;0.81;100.00;98873.97;4822264;29;20170;-75
2022/11/22 08:13:28;;;;;;;44.70;19.73;;;2.60;99.90;;;0.82;100.00;98867.56;4821119;29;20037;-76
2022/11/22 08:15:54;;;;;;;41.50;20.27;;;2.60;99.90;;;0.78;100.00;98882.38;4834135;29;20294;-76
2022/11/22 08:18:23;;;;;;;44.55;20.23;;;2.70;99.90;;;0.73;100.00;98879.47;4826142;29;20034;-77
2022/11/22 08:20:48;;;;;;;44.53;19.88;;;2.60;99.90;;;0.75;100.00;98885.47;4832637;29;20042;-76
2022/11/22 08:23:14;;;;;;;41.58;20.98;;;2.60;99.90;;;0.68;100.00;98880.88;4832039;29;20038;-77
2022/11/22 08:25:40;;;;;;;45.35;21.08;;;2.60;99.90;;;0.77;100.00;98886.09;4836294;29;20034;-79
2022/11/22 08:28:06;;;;;;;41.22;20.00;;;2.60;99.90;;;0.81;100.00;98893.56;4843285;29;20053;-77
2022/11/22 08:30:31;;;;;;;47.13;20.90;;;2.70;99.90;;;0.79;100.00;98897.47;4841122;29;20030;-77
2022/11/22 08:32:57;;;;;;;41.83;19.75;;;2.70;99.90;;;0.78;100.00;98904.72;4840647;29;20370;-77
2022/11/22 08:35:24;;;;;;;43.92;20.75;;;2.70;99.90;;;0.81;100.00;98907.00;4841927;29;20054;-75
2022/11/22 08:37:55;;;;;;;45.30;20.92;;;2.70;99.90;;;0.83;100.00;98906.81;4832128;29;20045;-77
2022/11/22 08:40:21;;;;;;;49.05;21.15;;;2.70;99.90;;;0.85;100.00;98913.63;4820722;29;20268;-76
2022/11/22 08:42:46;;;;;;;46.60;20.88;;;2.70;99.90;;;0.89;100.00;98911.38;4821495;29;20041;-80
2022/11/22 08:45:12;;;;;;;43.00;20.10;;;2.70;99.90;;;0.90;100.00;98902.31;4827486;29;20094;-80
2022/11/22 08:47:38;;;;;;;39.65;19.55;;;2.80;99.90;;;0.98;100.00;98904.00;4829063;29;20034;-80
2022/11/22 08:50:05;;;;;;;42.58;19.92;;;2.80;99.90;;;1.07;100.00;98912.75;4821750;29;20202;-79
2022/11/22 08:52:32;;;;;;;42.40;20.50;;;2.90;99.90;;;1.08;100.00;98906.34;4823520;29;20053;-82
2022/11/22 08:54:58;;;;;;;42.60;19.25;;;2.90;99.90;;;1.11;100.00;98912.13;4822671;29;20482;-81
2022/11/22 08:57:24;;;;;;;41.00;20.20;;;3.00;99.90;;;1.10;100.00;98913.16;4822349;29;20034;-79
2022/11/22 08:59:50;;;;;;;46.42;21.42;;;3.00;99.90;;;1.13;100.00;98915.44;4826888;29;20042;-79
2022/11/22 09:02:16;;;;;;;45.10;24.00;;;3.00;99.90;;;1.15;100.00;98923.34;4820487;29;20083;-82
2022/11/22 09:04:41;;;;;;;46.42;24.50;;;3.00;99.90;;;1.15;100.00;98923.34;4820624;29;20045;-78
2022/11/22 09:07:07;;;;;;;47.05;22.67;;;3.00;99.90;;;1.13;100.00;98914.66;4834609;29;20039;-80
2022/11/22 09:09:33;;;;;;;36.10;19.67;;;3.00;99.90;;;1.16;100.00;98927.69;4835347;29;20026;-82
2022/11/22 09:11:59;;;;;;;40.38;20.13;;;3.00;99.90;;;1.23;100.00;98923.16;4821448;29;20494;-83
2022/11/22 09:14:24;;;;;;;40.40;19.63;;;3.10;99.90;;;1.29;100.00;98930.41;4823875;29;20091;-82
2022/11/22 09:16:50;;;;;;;37.33;18.50;;;3.10;99.90;;;1.33;100.00;98936.25;4824610;29;20411;-82
2022/11/22 09:19:16;;;;;;;41.40;19.27;;;3.20;99.90;;;1.46;100.00;98948.91;4820694;29;20078;-78
2022/11/22 09:21:42;;;;;;;38.88;18.55;;;3.30;99.90;;;1.56;100.00;98960.13;4821065;29;20301;-77
2022/11/22 09:24:08;;;;;;;37.55;17.95;;;3.40;99.90;;;1.62;100.00;98949.63;4826037;29;20098;-78
2022/11/22 09:26:33;;;;;;;35.38;18.50;;;3.50;99.90;;;1.84;100.00;98963.78;4822040;29;20141;-77
2022/11/22 09:28:59;;;;;;;36.78;19.00;;;3.70;99.90;;;2.11;100.00;98963.84;4817063;29;20129;-76
2022/11/22 09:31:25;;;;;;;36.22;16.17;;;4.00;99.90;;;2.30;100.00;98967.63;4817029;29;20075;-76
2022/11/22 09:33:51;;;;;;;29.25;15.52;;;4.30;99.90;;;2.49;100.00;98965.19;4817383;29;20566;-76
2022/11/22 09:36:25;;;;;;;29.92;16.80;;;4.50;99.90;;;2.51;100.00;98969.31;4818255;29;20418;-76
2022/11/22 09:38:51;;;;;;;30.15;16.00;;;4.50;99.90;;;2.57;100.00;98973.06;4834716;29;20035;-76
2022/11/22 09:41:54;;;;;;;30.48;15.45;;;4.60;99.90;;;2.65;100.00;98980.09;4820628;29;20046;-76
2022/11/22 09:45:05;;;;;;;35.65;16.48;;;4.60;99.90;;;2.99;100.00;98978.25;4832605;29;20267;-75
2022/11/22 09:47:46;;;;;;;30.27;16.13;;;4.70;99.90;;;3.08;100.00;98976.16;4842192;29;20061;-76
2022/11/22 09:50:39;;;;;;;27.77;14.18;;;5.10;99.90;;;2.94;100.00;98970.81;4820766;29;20118;-75
2022/11/22 09:53:23;;;;;;;25.05;13.57;;;5.10;99.90;;;2.92;100.00;98978.25;4818860;29;20046;-74
2022/11/22 09:55:59;;;;;;;25.15;14.02;;;5.00;99.90;;;3.14;100.00;98978.84;4818742;29;20498;-74
2022/11/22 09:58:56;;;;;;;26.08;12.93;;;5.10;99.90;;;3.46;100.00;98978.19;4818819;29;20022;-76
2022/11/22 10:01:33;;;;;;;24.20;13.05;;;5.30;99.90;;;3.70;100.00;98983.91;4818882;29;20042;-75
2022/11/22 10:04:14;;;;;;;26.13;12.90;;;5.60;99.90;;;3.79;100.00;98979.94;4818499;29;20076;-75
2022/11/22 10:06:45;;;;;;;22.63;12.60;;;5.80;99.90;;;3.92;100.00;98983.63;4818937;29;20401;-75
2022/11/22 10:09:33;;;;;;;21.70;11.60;;;5.90;99.90;;;3.91;100.00;98982.81;4818211;29;20301;-75
2022/11/22 10:12:10;;;;;;;19.73;11.23;;;5.90;99.90;;;4.23;100.00;98982.88;4818185;29;20146;-76
2022/11/22 10:15:01;;;;;;;21.85;12.32;;;6.10;99.90;;;5.08;100.00;98982.69;4818849;29;20042;-76
2022/11/22 10:17:50;;;;;;;20.38;10.73;;;6.80;99.90;;;6.72;94.81;98984.91;4818817;29;20037;-76
2022/11/22 10:20:27;;;;;;;17.10;10.48;;;8.10;99.90;;;7.69;84.13;98980.13;4819210;29;20513;-79
2022/11/22 10:22:55;;;;;;;15.68;8.88;;;9.50;99.90;;;7.85;80.61;98973.13;4819778;29;20077;-78
2022/11/22 10:25:46;;;;;;;17.95;9.32;;;10.10;99.90;;;7.91;77.63;98968.63;4819343;29;20081;-79
2022/11/22 10:28:35;;;;;;;19.15;9.23;;;10.30;99.90;;;7.26;81.13;98979.44;4818550;29;20038;-80
2022/11/22 10:31:13;;;;;;;;;;;10.00;99.90;;;7.23;84.89;98977.22;4819401;29;20462;-80